Frankston, Australia
Current Conditions -  °F | °C
As of 11:00 AM on Saturday 25 Oct 2014 (Local Time) from YMEN Reporting Station
Overcast Overcast  
Wind Chill: 61°   Ceiling: 2100
Heat Index: 61°   Visibility: 6mi
Dew Point: 52°   Wind: 9mph
Humidity: 72%   Direction: 180°S
Pressure: 30.03"   Gusts: NA
Location:  38.15°S, 145.12°E
Report Text: YMEN 250000Z AUTO 18008KT 9999 // OVC021 16/11 Q1017
Loading
Personal Weather Stations






























Interactive Weather Map
Tropical Storm Tracking
New forecast layout! Learn more

10-Day Weather Forecast

Advertisements
Track Severe Weather on mobile